sensor_id;sensor_type;location;lat;lon;timestamp;temperature;humidity
14095;DHT22;18096;48.142;16.290;2023-03-01T00:01:22;0.90;90.80
14095;DHT22;18096;48.142;16.290;2023-03-01T00:03:48;0.90;90.90
14095;DHT22;18096;48.142;16.290;2023-03-01T00:06:14;0.90;91.20
14095;DHT22;18096;48.142;16.290;2023-03-01T00:08:40;0.90;90.90
14095;DHT22;18096;48.142;16.290;2023-03-01T00:11:27;0.90;91.10
14095;DHT22;18096;48.142;16.290;2023-03-01T00:13:54;0.90;91.10
14095;DHT22;18096;48.142;16.290;2023-03-01T00:16:26;0.90;90.90
14095;DHT22;18096;48.142;16.290;2023-03-01T00:18:54;0.90;91.00
14095;DHT22;18096;48.142;16.290;2023-03-01T00:21:20;0.90;91.10
14095;DHT22;18096;48.142;16.290;2023-03-01T00:23:48;0.90;91.20
14095;DHT22;18096;48.142;16.290;2023-03-01T00:26:14;0.90;91.20
14095;DHT22;18096;48.142;16.290;2023-03-01T00:28:41;0.90;91.10
14095;DHT22;18096;48.142;16.290;2023-03-01T00:31:12;0.90;91.10
14095;DHT22;18096;48.142;16.290;2023-03-01T00:33:38;0.80;91.20
14095;DHT22;18096;48.142;16.290;2023-03-01T00:36:05;0.90;91.20
14095;DHT22;18096;48.142;16.290;2023-03-01T00:38:38;0.90;91.10
14095;DHT22;18096;48.142;16.290;2023-03-01T00:41:18;0.90;91.00
14095;DHT22;18096;48.142;16.290;2023-03-01T00:43:45;0.80;91.00
14095;DHT22;18096;48.142;16.290;2023-03-01T00:46:13;0.80;91.10
14095;DHT22;18096;48.142;16.290;2023-03-01T00:48:39;0.80;91.10
14095;DHT22;18096;48.142;16.290;2023-03-01T00:51:30;0.70;91.10
14095;DHT22;18096;48.142;16.290;2023-03-01T00:53:58;0.70;91.30
14095;DHT22;18096;48.142;16.290;2023-03-01T00:56:24;0.80;91.30
14095;DHT22;18096;48.142;16.290;2023-03-01T00:58:50;0.70;91.40
14095;DHT22;18096;48.142;16.290;2023-03-01T01:01:21;0.70;91.40
14095;DHT22;18096;48.142;16.290;2023-03-01T01:03:50;0.70;91.40
14095;DHT22;18096;48.142;16.290;2023-03-01T01:06:18;0.70;91.30
14095;DHT22;18096;48.142;16.290;2023-03-01T01:08:44;0.70;91.40
14095;DHT22;18096;48.142;16.290;2023-03-01T01:11:11;0.70;91.50
14095;DHT22;18096;48.142;16.290;2023-03-01T01:13:37;0.70;91.40
14095;DHT22;18096;48.142;16.290;2023-03-01T01:16:04;0.60;91.40
14095;DHT22;18096;48.142;16.290;2023-03-01T01:18:29;0.60;91.40
14095;DHT22;18096;48.142;16.290;2023-03-01T01:20:55;0.60;91.40
14095;DHT22;18096;48.142;16.290;2023-03-01T01:23:21;0.60;91.50
14095;DHT22;18096;48.142;16.290;2023-03-01T01:25:46;0.70;91.50
14095;DHT22;18096;48.142;16.290;2023-03-01T01:28:12;0.70;91.50
14095;DHT22;18096;48.142;16.290;2023-03-01T01:30:38;0.70;91.50
14095;DHT22;18096;48.142;16.290;2023-03-01T01:33:03;0.70;91.90
14095;DHT22;18096;48.142;16.290;2023-03-01T01:35:29;0.60;91.70
14095;DHT22;18096;48.142;16.290;2023-03-01T01:37:55;0.60;91.80
14095;DHT22;18096;48.142;16.290;2023-03-01T01:40:20;0.70;91.80
14095;DHT22;18096;48.142;16.290;2023-03-01T01:42:46;0.60;91.90
14095;DHT22;18096;48.142;16.290;2023-03-01T01:45:29;0.70;92.00
14095;DHT22;18096;48.142;16.290;2023-03-01T01:47:59;0.70;92.00
14095;DHT22;18096;48.142;16.290;2023-03-01T01:50:26;0.80;92.10
14095;DHT22;18096;48.142;16.290;2023-03-01T01:52:53;0.80;92.00
14095;DHT22;18096;48.142;16.290;2023-03-01T01:55:23;0.90;92.10
14095;DHT22;18096;48.142;16.290;2023-03-01T01:57:55;0.90;92.10
14095;DHT22;18096;48.142;16.290;2023-03-01T02:00:27;0.90;92.00
14095;DHT22;18096;48.142;16.290;2023-03-01T02:03:07;1.00;92.00
14095;DHT22;18096;48.142;16.290;2023-03-01T02:06:10;1.00;92.10
14095;DHT22;18096;48.142;16.290;2023-03-01T02:08:28;1.00;92.10
14095;DHT22;18096;48.142;16.290;2023-03-01T02:10:56;1.10;92.10
14095;DHT22;18096;48.142;16.290;2023-03-01T02:13:23;1.10;92.10
14095;DHT22;18096;48.142;16.290;2023-03-01T02:15:49;1.10;92.10
14095;DHT22;18096;48.142;16.290;2023-03-01T02:18:17;1.20;92.00
14095;DHT22;18096;48.142;16.290;2023-03-01T02:23:30;1.30;92.10
14095;DHT22;18096;48.142;16.290;2023-03-01T02:26:01;1.30;92.00
14095;DHT22;18096;48.142;16.290;2023-03-01T02:28:37;1.30;92.10
14095;DHT22;18096;48.142;16.290;2023-03-01T02:31:06;1.30;92.00
14095;DHT22;18096;48.142;16.290;2023-03-01T02:33:51;1.30;92.10
14095;DHT22;18096;48.142;16.290;2023-03-01T02:36:24;1.30;92.10
14095;DHT22;18096;48.142;16.290;2023-03-01T02:38:54;1.30;92.10
14095;DHT22;18096;48.142;16.290;2023-03-01T02:41:22;1.30;92.10
14095;DHT22;18096;48.142;16.290;2023-03-01T02:43:48;1.30;92.00
14095;DHT22;18096;48.142;16.290;2023-03-01T02:46:23;1.30;92.10
14095;DHT22;18096;48.142;16.290;2023-03-01T02:48:52;1.30;92.20
14095;DHT22;18096;48.142;16.290;2023-03-01T02:51:52;1.40;92.10
14095;DHT22;18096;48.142;16.290;2023-03-01T02:54:28;1.40;92.10
14095;DHT22;18096;48.142;16.290;2023-03-01T02:56:54;1.40;92.20
14095;DHT22;18096;48.142;16.290;2023-03-01T02:59:26;1.50;92.20
14095;DHT22;18096;48.142;16.290;2023-03-01T03:01:52;1.50;92.30
14095;DHT22;18096;48.142;16.290;2023-03-01T03:04:19;1.50;92.30
14095;DHT22;18096;48.142;16.290;2023-03-01T03:06:47;1.50;92.30
14095;DHT22;18096;48.142;16.290;2023-03-01T03:09:14;1.60;92.40
14095;DHT22;18096;48.142;16.290;2023-03-01T03:11:40;1.60;92.50
14095;DHT22;18096;48.142;16.290;2023-03-01T03:14:08;1.60;92.50
14095;DHT22;18096;48.142;16.290;2023-03-01T03:16:56;1.70;92.70
14095;DHT22;18096;48.142;16.290;2023-03-01T03:19:21;1.80;92.70
14095;DHT22;18096;48.142;16.290;2023-03-01T03:21:47;1.60;92.70
14095;DHT22;18096;48.142;16.290;2023-03-01T03:24:13;1.70;92.80
14095;DHT22;18096;48.142;16.290;2023-03-01T03:26:39;1.70;92.60
14095;DHT22;18096;48.142;16.290;2023-03-01T03:29:04;1.70;92.50
14095;DHT22;18096;48.142;16.290;2023-03-01T03:31:30;1.80;92.30
14095;DHT22;18096;48.142;16.290;2023-03-01T03:33:56;1.80;92.30
14095;DHT22;18096;48.142;16.290;2023-03-01T03:36:24;1.80;92.20
14095;DHT22;18096;48.142;16.290;2023-03-01T03:38:50;1.80;92.10
14095;DHT22;18096;48.142;16.290;2023-03-01T03:41:16;1.80;92.00
14095;DHT22;18096;48.142;16.290;2023-03-01T03:43:42;1.80;92.00
14095;DHT22;18096;48.142;16.290;2023-03-01T03:46:09;1.80;91.90
14095;DHT22;18096;48.142;16.290;2023-03-01T03:48:43;1.80;91.80
14095;DHT22;18096;48.142;16.290;2023-03-01T03:51:11;1.80;91.70
14095;DHT22;18096;48.142;16.290;2023-03-01T03:53:37;1.80;91.70
14095;DHT22;18096;48.142;16.290;2023-03-01T03:56:04;1.90;91.60
14095;DHT22;18096;48.142;16.290;2023-03-01T03:58:29;1.90;91.60
14095;DHT22;18096;48.142;16.290;2023-03-01T04:00:56;1.90;91.50
14095;DHT22;18096;48.142;16.290;2023-03-01T04:03:23;1.90;91.60
14095;DHT22;18096;48.142;16.290;2023-03-01T04:05:51;1.90;91.60
14095;DHT22;18096;48.142;16.290;2023-03-01T04:08:18;1.90;91.70
14095;DHT22;18096;48.142;16.290;2023-03-01T04:10:47;1.90;91.70
14095;DHT22;18096;48.142;16.290;2023-03-01T04:13:15;1.90;91.70
14095;DHT22;18096;48.142;16.290;2023-03-01T04:15:41;1.90;91.70
14095;DHT22;18096;48.142;16.290;2023-03-01T04:18:10;1.90;91.70
14095;DHT22;18096;48.142;16.290;2023-03-01T04:20:37;1.90;91.70
14095;DHT22;18096;48.142;16.290;2023-03-01T04:23:04;2.00;91.70
14095;DHT22;18096;48.142;16.290;2023-03-01T04:25:39;2.00;91.80
14095;DHT22;18096;48.142;16.290;2023-03-01T04:28:06;2.00;91.80
14095;DHT22;18096;48.142;16.290;2023-03-01T04:30:32;2.00;91.80
14095;DHT22;18096;48.142;16.290;2023-03-01T04:33:05;2.00;91.80
14095;DHT22;18096;48.142;16.290;2023-03-01T04:35:32;2.00;91.80
14095;DHT22;18096;48.142;16.290;2023-03-01T04:37:58;2.00;91.80
14095;DHT22;18096;48.142;16.290;2023-03-01T04:40:24;1.90;91.80
14095;DHT22;18096;48.142;16.290;2023-03-01T04:42:50;2.00;91.90
14095;DHT22;18096;48.142;16.290;2023-03-01T04:45:16;2.00;91.90
14095;DHT22;18096;48.142;16.290;2023-03-01T04:47:43;2.00;91.90
14095;DHT22;18096;48.142;16.290;2023-03-01T04:50:10;2.00;91.90
14095;DHT22;18096;48.142;16.290;2023-03-01T04:52:37;2.10;91.90
14095;DHT22;18096;48.142;16.290;2023-03-01T04:55:03;2.10;91.90
14095;DHT22;18096;48.142;16.290;2023-03-01T04:57:30;2.10;91.80
14095;DHT22;18096;48.142;16.290;2023-03-01T04:59:56;2.10;91.70
14095;DHT22;18096;48.142;16.290;2023-03-01T05:02:21;2.00;91.60
14095;DHT22;18096;48.142;16.290;2023-03-01T05:04:47;2.00;91.60
14095;DHT22;18096;48.142;16.290;2023-03-01T05:07:13;2.10;91.70
14095;DHT22;18096;48.142;16.290;2023-03-01T05:09:46;2.10;91.60
14095;DHT22;18096;48.142;16.290;2023-03-01T05:12:12;2.10;91.80
14095;DHT22;18096;48.142;16.290;2023-03-01T05:14:38;2.10;91.50
14095;DHT22;18096;48.142;16.290;2023-03-01T05:17:04;2.10;91.50
14095;DHT22;18096;48.142;16.290;2023-03-01T05:19:31;2.10;91.50
14095;DHT22;18096;48.142;16.290;2023-03-01T05:21:57;2.10;91.50
14095;DHT22;18096;48.142;16.290;2023-03-01T05:24:35;2.10;91.50
14095;DHT22;18096;48.142;16.290;2023-03-01T05:27:01;2.10;91.40
14095;DHT22;18096;48.142;16.290;2023-03-01T05:29:29;2.20;91.40
14095;DHT22;18096;48.142;16.290;2023-03-01T05:31:58;2.10;91.40
14095;DHT22;18096;48.142;16.290;2023-03-01T05:34:32;2.10;91.40
14095;DHT22;18096;48.142;16.290;2023-03-01T05:36:58;2.10;91.30
14095;DHT22;18096;48.142;16.290;2023-03-01T05:39:26;2.10;91.40
14095;DHT22;18096;48.142;16.290;2023-03-01T05:41:54;2.10;91.40
14095;DHT22;18096;48.142;16.290;2023-03-01T05:44:20;2.10;91.40
14095;DHT22;18096;48.142;16.290;2023-03-01T05:46:45;2.10;91.40
14095;DHT22;18096;48.142;16.290;2023-03-01T05:49:12;2.20;91.40
14095;DHT22;18096;48.142;16.290;2023-03-01T05:51:42;2.30;91.60
14095;DHT22;18096;48.142;16.290;2023-03-01T05:54:09;2.40;91.60
14095;DHT22;18096;48.142;16.290;2023-03-01T05:56:36;2.40;91.70
14095;DHT22;18096;48.142;16.290;2023-03-01T05:59:03;2.30;91.70
14095;DHT22;18096;48.142;16.290;2023-03-01T06:01:31;2.40;91.60
14095;DHT22;18096;48.142;16.290;2023-03-01T06:03:56;2.30;91.50
14095;DHT22;18096;48.142;16.290;2023-03-01T06:06:23;2.30;91.50
14095;DHT22;18096;48.142;16.290;2023-03-01T06:08:49;2.30;91.50
14095;DHT22;18096;48.142;16.290;2023-03-01T06:11:15;2.30;91.50
14095;DHT22;18096;48.142;16.290;2023-03-01T06:13:42;2.30;91.40
14095;DHT22;18096;48.142;16.290;2023-03-01T06:16:08;2.30;91.40
14095;DHT22;18096;48.142;16.290;2023-03-01T06:18:34;2.40;91.40
14095;DHT22;18096;48.142;16.290;2023-03-01T06:21:00;2.40;91.40
14095;DHT22;18096;48.142;16.290;2023-03-01T06:23:26;2.40;91.40
14095;DHT22;18096;48.142;16.290;2023-03-01T06:25:52;2.40;91.50
14095;DHT22;18096;48.142;16.290;2023-03-01T06:28:18;2.40;91.60
14095;DHT22;18096;48.142;16.290;2023-03-01T06:30:43;2.40;91.60
14095;DHT22;18096;48.142;16.290;2023-03-01T06:33:09;2.50;91.70
14095;DHT22;18096;48.142;16.290;2023-03-01T06:35:35;2.50;91.60
14095;DHT22;18096;48.142;16.290;2023-03-01T06:38:02;2.50;91.50
14095;DHT22;18096;48.142;16.290;2023-03-01T06:40:29;2.50;91.40
14095;DHT22;18096;48.142;16.290;2023-03-01T06:42:57;2.50;91.40
14095;DHT22;18096;48.142;16.290;2023-03-01T06:45:23;2.60;91.40
14095;DHT22;18096;48.142;16.290;2023-03-01T06:47:48;2.60;91.40
14095;DHT22;18096;48.142;16.290;2023-03-01T06:50:15;2.60;91.30
14095;DHT22;18096;48.142;16.290;2023-03-01T06:52:41;2.60;91.30
14095;DHT22;18096;48.142;16.290;2023-03-01T06:55:07;2.60;91.30
14095;DHT22;18096;48.142;16.290;2023-03-01T06:57:33;2.70;91.20
14095;DHT22;18096;48.142;16.290;2023-03-01T06:59:58;2.70;91.20
14095;DHT22;18096;48.142;16.290;2023-03-01T07:02:24;2.70;91.10
14095;DHT22;18096;48.142;16.290;2023-03-01T07:04:50;2.80;91.10
14095;DHT22;18096;48.142;16.290;2023-03-01T07:07:17;2.80;91.00
14095;DHT22;18096;48.142;16.290;2023-03-01T07:09:46;2.80;91.10
14095;DHT22;18096;48.142;16.290;2023-03-01T07:12:13;2.80;91.10
14095;DHT22;18096;48.142;16.290;2023-03-01T07:14:39;2.80;91.10
14095;DHT22;18096;48.142;16.290;2023-03-01T07:17:05;2.80;91.10
14095;DHT22;18096;48.142;16.290;2023-03-01T07:19:31;2.90;91.00
14095;DHT22;18096;48.142;16.290;2023-03-01T07:21:57;2.90;91.00
14095;DHT22;18096;48.142;16.290;2023-03-01T07:24:23;2.90;91.00
14095;DHT22;18096;48.142;16.290;2023-03-01T07:26:50;2.90;91.00
14095;DHT22;18096;48.142;16.290;2023-03-01T07:29:16;3.00;90.90
14095;DHT22;18096;48.142;16.290;2023-03-01T07:31:42;3.00;90.90
14095;DHT22;18096;48.142;16.290;2023-03-01T07:34:08;3.00;90.90
14095;DHT22;18096;48.142;16.290;2023-03-01T07:36:33;3.00;90.80
14095;DHT22;18096;48.142;16.290;2023-03-01T07:38:59;3.10;90.80
14095;DHT22;18096;48.142;16.290;2023-03-01T07:41:27;3.10;90.70
14095;DHT22;18096;48.142;16.290;2023-03-01T07:43:53;3.20;90.60
14095;DHT22;18096;48.142;16.290;2023-03-01T07:46:19;3.30;90.50
14095;DHT22;18096;48.142;16.290;2023-03-01T07:48:44;3.30;90.50
14095;DHT22;18096;48.142;16.290;2023-03-01T07:51:10;3.40;90.40
14095;DHT22;18096;48.142;16.290;2023-03-01T07:53:36;3.50;93.70
14095;DHT22;18096;48.142;16.290;2023-03-01T07:56:08;3.70;94.20
14095;DHT22;18096;48.142;16.290;2023-03-01T07:58:35;3.70;92.80
14095;DHT22;18096;48.142;16.290;2023-03-01T08:01:05;3.80;92.00
14095;DHT22;18096;48.142;16.290;2023-03-01T08:03:31;3.80;91.70
14095;DHT22;18096;48.142;16.290;2023-03-01T08:06:00;3.80;91.60
14095;DHT22;18096;48.142;16.290;2023-03-01T08:08:26;3.80;91.40
14095;DHT22;18096;48.142;16.290;2023-03-01T08:10:52;3.90;91.30
14095;DHT22;18096;48.142;16.290;2023-03-01T08:13:17;3.90;91.10
14095;DHT22;18096;48.142;16.290;2023-03-01T08:15:48;4.00;90.90
14095;DHT22;18096;48.142;16.290;2023-03-01T08:18:15;4.10;90.70
14095;DHT22;18096;48.142;16.290;2023-03-01T08:20:41;4.20;90.50
14095;DHT22;18096;48.142;16.290;2023-03-01T08:23:06;4.20;90.20
14095;DHT22;18096;48.142;16.290;2023-03-01T08:25:32;4.20;90.20
14095;DHT22;18096;48.142;16.290;2023-03-01T08:27:57;4.20;90.00
14095;DHT22;18096;48.142;16.290;2023-03-01T08:30:23;4.20;89.10
14095;DHT22;18096;48.142;16.290;2023-03-01T08:32:49;4.20;89.60
14095;DHT22;18096;48.142;16.290;2023-03-01T08:35:15;4.20;90.10
14095;DHT22;18096;48.142;16.290;2023-03-01T08:37:41;4.30;90.20
14095;DHT22;18096;48.142;16.290;2023-03-01T08:40:08;4.30;90.20
14095;DHT22;18096;48.142;16.290;2023-03-01T08:42:36;4.40;90.30
14095;DHT22;18096;48.142;16.290;2023-03-01T08:45:03;4.50;90.30
14095;DHT22;18096;48.142;16.290;2023-03-01T08:47:28;4.60;90.10
14095;DHT22;18096;48.142;16.290;2023-03-01T08:49:54;4.60;89.80
14095;DHT22;18096;48.142;16.290;2023-03-01T08:52:20;4.60;89.30
14095;DHT22;18096;48.142;16.290;2023-03-01T08:54:48;4.60;89.30
14095;DHT22;18096;48.142;16.290;2023-03-01T08:57:14;4.60;89.40
14095;DHT22;18096;48.142;16.290;2023-03-01T08:59:39;4.50;89.70
14095;DHT22;18096;48.142;16.290;2023-03-01T09:02:17;4.60;89.50
14095;DHT22;18096;48.142;16.290;2023-03-01T09:04:43;4.70;88.90
14095;DHT22;18096;48.142;16.290;2023-03-01T09:07:10;4.70;88.40
14095;DHT22;18096;48.142;16.290;2023-03-01T09:09:36;4.80;88.70
14095;DHT22;18096;48.142;16.290;2023-03-01T09:12:03;4.80;88.80
14095;DHT22;18096;48.142;16.290;2023-03-01T09:14:28;4.90;88.30
14095;DHT22;18096;48.142;16.290;2023-03-01T09:16:54;4.90;87.90
14095;DHT22;18096;48.142;16.290;2023-03-01T09:19:20;5.00;87.50
14095;DHT22;18096;48.142;16.290;2023-03-01T09:21:46;5.00;87.30
14095;DHT22;18096;48.142;16.290;2023-03-01T09:24:23;4.90;87.50
14095;DHT22;18096;48.142;16.290;2023-03-01T09:26:49;5.00;87.10
14095;DHT22;18096;48.142;16.290;2023-03-01T09:29:16;5.00;87.30
14095;DHT22;18096;48.142;16.290;2023-03-01T09:31:42;5.00;87.60
14095;DHT22;18096;48.142;16.290;2023-03-01T09:34:09;5.10;87.30
14095;DHT22;18096;48.142;16.290;2023-03-01T09:36:35;5.20;86.30
14095;DHT22;18096;48.142;16.290;2023-03-01T09:39:02;5.20;86.30
14095;DHT22;18096;48.142;16.290;2023-03-01T09:44:27;5.30;86.00
14095;DHT22;18096;48.142;16.290;2023-03-01T09:46:55;5.40;85.90
14095;DHT22;18096;48.142;16.290;2023-03-01T09:49:45;5.50;85.90
14095;DHT22;18096;48.142;16.290;2023-03-01T09:52:38;5.50;85.60
14095;DHT22;18096;48.142;16.290;2023-03-01T09:55:12;5.60;84.60
14095;DHT22;18096;48.142;16.290;2023-03-01T09:58:37;5.50;84.60
14095;DHT22;18096;48.142;16.290;2023-03-01T10:00:46;5.60;84.90
14095;DHT22;18096;48.142;16.290;2023-03-01T10:03:28;5.70;84.60
14095;DHT22;18096;48.142;16.290;2023-03-01T10:06:09;5.80;84.80
14095;DHT22;18096;48.142;16.290;2023-03-01T10:08:42;5.80;84.30
14095;DHT22;18096;48.142;16.290;2023-03-01T10:11:35;5.90;84.10
14095;DHT22;18096;48.142;16.290;2023-03-01T10:19:43;6.10;83.50
14095;DHT22;18096;48.142;16.290;2023-03-01T10:22:29;6.20;83.50
14095;DHT22;18096;48.142;16.290;2023-03-01T10:24:58;6.20;83.70
14095;DHT22;18096;48.142;16.290;2023-03-01T10:32:57;6.40;83.30
14095;DHT22;18096;48.142;16.290;2023-03-01T10:35:25;6.50;82.20
14095;DHT22;18096;48.142;16.290;2023-03-01T10:38:09;6.50;81.90
14095;DHT22;18096;48.142;16.290;2023-03-01T10:40:50;6.60;82.20
14095;DHT22;18096;48.142;16.290;2023-03-01T10:43:16;6.60;81.50
14095;DHT22;18096;48.142;16.290;2023-03-01T10:45:42;6.60;81.40
14095;DHT22;18096;48.142;16.290;2023-03-01T10:50:34;6.70;80.70
14095;DHT22;18096;48.142;16.290;2023-03-01T10:53:02;6.80;80.70
14095;DHT22;18096;48.142;16.290;2023-03-01T11:00:34;6.90;80.30
14095;DHT22;18096;48.142;16.290;2023-03-01T11:03:13;6.90;79.90
14095;DHT22;18096;48.142;16.290;2023-03-01T11:06:00;6.80;79.80
14095;DHT22;18096;48.142;16.290;2023-03-01T11:08:40;6.90;80.10
14095;DHT22;18096;48.142;16.290;2023-03-01T11:19:07;7.10;79.40
14095;DHT22;18096;48.142;16.290;2023-03-01T11:24:19;7.20;79.50
14095;DHT22;18096;48.142;16.290;2023-03-01T11:26:51;7.30;78.90
14095;DHT22;18096;48.142;16.290;2023-03-01T11:29:27;7.40;79.00
14095;DHT22;18096;48.142;16.290;2023-03-01T11:31:57;7.50;78.40
14095;DHT22;18096;48.142;16.290;2023-03-01T11:34:40;7.50;78.10
14095;DHT22;18096;48.142;16.290;2023-03-01T11:37:38;7.60;78.60
14095;DHT22;18096;48.142;16.290;2023-03-01T11:45:22;7.70;78.00
14095;DHT22;18096;48.142;16.290;2023-03-01T11:48:23;7.70;77.60
14095;DHT22;18096;48.142;16.290;2023-03-01T11:50:52;7.70;77.80
14095;DHT22;18096;48.142;16.290;2023-03-01T11:54:09;7.80;78.30
14095;DHT22;18096;48.142;16.290;2023-03-01T11:56:41;7.80;78.40
14095;DHT22;18096;48.142;16.290;2023-03-01T12:07:01;7.90;77.70
14095;DHT22;18096;48.142;16.290;2023-03-01T12:12:20;8.00;78.10
14095;DHT22;18096;48.142;16.290;2023-03-01T12:20:39;8.00;77.30
14095;DHT22;18096;48.142;16.290;2023-03-01T12:34:37;8.10;77.70
14095;DHT22;18096;48.142;16.290;2023-03-01T12:42:46;8.20;78.00
14095;DHT22;18096;48.142;16.290;2023-03-01T12:45:34;8.30;78.60
14095;DHT22;18096;48.142;16.290;2023-03-01T12:51:01;8.30;78.30
14095;DHT22;18096;48.142;16.290;2023-03-01T12:53:32;8.30;78.10
14095;DHT22;18096;48.142;16.290;2023-03-01T12:56:06;8.30;78.20
14095;DHT22;18096;48.142;16.290;2023-03-01T12:58:55;8.40;77.80
14095;DHT22;18096;48.142;16.290;2023-03-01T13:01:51;8.40;78.30
14095;DHT22;18096;48.142;16.290;2023-03-01T13:04:45;8.40;77.50
14095;DHT22;18096;48.142;16.290;2023-03-01T13:07:38;8.40;77.20
14095;DHT22;18096;48.142;16.290;2023-03-01T13:17:53;8.40;78.70
14095;DHT22;18096;48.142;16.290;2023-03-01T13:20:24;8.40;78.40
14095;DHT22;18096;48.142;16.290;2023-03-01T13:23:12;8.40;78.70
14095;DHT22;18096;48.142;16.290;2023-03-01T13:26:16;8.40;79.20
14095;DHT22;18096;48.142;16.290;2023-03-01T13:33:57;8.60;78.70
14095;DHT22;18096;48.142;16.290;2023-03-01T13:38:58;8.60;78.60
14095;DHT22;18096;48.142;16.290;2023-03-01T13:49:29;8.50;78.40
14095;DHT22;18096;48.142;16.290;2023-03-01T13:51:55;8.40;78.60
14095;DHT22;18096;48.142;16.290;2023-03-01T13:54:31;8.40;79.10
14095;DHT22;18096;48.142;16.290;2023-03-01T13:57:00;8.40;78.70
14095;DHT22;18096;48.142;16.290;2023-03-01T13:59:29;8.50;78.80
14095;DHT22;18096;48.142;16.290;2023-03-01T14:02:00;8.40;78.30
14095;DHT22;18096;48.142;16.290;2023-03-01T14:04:27;8.40;78.40
14095;DHT22;18096;48.142;16.290;2023-03-01T14:07:29;8.40;78.80
14095;DHT22;18096;48.142;16.290;2023-03-01T14:09:58;8.40;79.10
14095;DHT22;18096;48.142;16.290;2023-03-01T14:12:26;8.50;79.10
14095;DHT22;18096;48.142;16.290;2023-03-01T14:15:20;8.50;79.30
14095;DHT22;18096;48.142;16.290;2023-03-01T14:22:54;8.40;79.00
14095;DHT22;18096;48.142;16.290;2023-03-01T14:36:00;8.30;79.60
14095;DHT22;18096;48.142;16.290;2023-03-01T14:38:37;8.30;80.00
14095;DHT22;18096;48.142;16.290;2023-03-01T14:41:07;8.30;80.10
14095;DHT22;18096;48.142;16.290;2023-03-01T14:43:35;8.30;80.10
14095;DHT22;18096;48.142;16.290;2023-03-01T14:46:02;8.40;80.20
14095;DHT22;18096;48.142;16.290;2023-03-01T14:48:28;8.30;80.40
14095;DHT22;18096;48.142;16.290;2023-03-01T14:50:55;8.40;80.70
14095;DHT22;18096;48.142;16.290;2023-03-01T14:53:29;8.30;80.80
14095;DHT22;18096;48.142;16.290;2023-03-01T14:55:59;8.40;81.30
14095;DHT22;18096;48.142;16.290;2023-03-01T14:58:28;8.50;81.30
14095;DHT22;18096;48.142;16.290;2023-03-01T15:01:00;8.50;81.00
14095;DHT22;18096;48.142;16.290;2023-03-01T15:03:33;8.40;80.80
14095;DHT22;18096;48.142;16.290;2023-03-01T15:06:03;8.40;81.00
14095;DHT22;18096;48.142;16.290;2023-03-01T15:08:31;8.40;81.30
14095;DHT22;18096;48.142;16.290;2023-03-01T15:11:29;8.40;81.50
14095;DHT22;18096;48.142;16.290;2023-03-01T15:13:56;8.50;81.70
14095;DHT22;18096;48.142;16.290;2023-03-01T15:18:55;8.50;81.80
14095;DHT22;18096;48.142;16.290;2023-03-01T15:21:24;8.50;82.10
14095;DHT22;18096;48.142;16.290;2023-03-01T15:24:05;8.40;82.50
14095;DHT22;18096;48.142;16.290;2023-03-01T15:26:37;8.40;82.20
14095;DHT22;18096;48.142;16.290;2023-03-01T15:29:04;8.40;81.80
14095;DHT22;18096;48.142;16.290;2023-03-01T15:31:42;8.40;81.70
14095;DHT22;18096;48.142;16.290;2023-03-01T15:37:40;8.40;81.80
14095;DHT22;18096;48.142;16.290;2023-03-01T15:42:50;8.30;81.90
14095;DHT22;18096;48.142;16.290;2023-03-01T15:47:50;8.30;82.10
14095;DHT22;18096;48.142;16.290;2023-03-01T15:50:22;8.20;82.30
14095;DHT22;18096;48.142;16.290;2023-03-01T15:52:48;8.20;82.60
14095;DHT22;18096;48.142;16.290;2023-03-01T15:55:21;8.20;82.70
14095;DHT22;18096;48.142;16.290;2023-03-01T15:57:48;8.20;83.00
14095;DHT22;18096;48.142;16.290;2023-03-01T16:00:14;8.20;83.20
14095;DHT22;18096;48.142;16.290;2023-03-01T16:02:41;8.20;83.30
14095;DHT22;18096;48.142;16.290;2023-03-01T16:07:44;8.10;83.10
14095;DHT22;18096;48.142;16.290;2023-03-01T16:10:10;8.10;83.30
14095;DHT22;18096;48.142;16.290;2023-03-01T16:12:36;8.10;83.10
14095;DHT22;18096;48.142;16.290;2023-03-01T16:15:02;8.10;82.80
14095;DHT22;18096;48.142;16.290;2023-03-01T16:17:28;8.20;82.80
14095;DHT22;18096;48.142;16.290;2023-03-01T16:19:53;8.20;82.70
14095;DHT22;18096;48.142;16.290;2023-03-01T16:22:20;8.20;82.60
14095;DHT22;18096;48.142;16.290;2023-03-01T16:24:50;8.10;82.60
14095;DHT22;18096;48.142;16.290;2023-03-01T16:27:16;8.10;83.20
14095;DHT22;18096;48.142;16.290;2023-03-01T16:29:41;8.10;82.60
14095;DHT22;18096;48.142;16.290;2023-03-01T16:32:07;8.10;82.70
14095;DHT22;18096;48.142;16.290;2023-03-01T16:34:33;8.10;83.30
14095;DHT22;18096;48.142;16.290;2023-03-01T16:36:59;8.10;83.20
14095;DHT22;18096;48.142;16.290;2023-03-01T16:39:25;8.00;82.90
14095;DHT22;18096;48.142;16.290;2023-03-01T16:41:51;8.00;82.70
14095;DHT22;18096;48.142;16.290;2023-03-01T16:44:16;8.00;82.60
14095;DHT22;18096;48.142;16.290;2023-03-01T16:46:42;8.00;82.60
14095;DHT22;18096;48.142;16.290;2023-03-01T16:49:08;8.00;82.70
14095;DHT22;18096;48.142;16.290;2023-03-01T16:51:34;7.90;82.80
14095;DHT22;18096;48.142;16.290;2023-03-01T16:54:01;7.90;82.90
14095;DHT22;18096;48.142;16.290;2023-03-01T16:56:27;7.90;83.00
14095;DHT22;18096;48.142;16.290;2023-03-01T16:58:57;7.90;82.90
14095;DHT22;18096;48.142;16.290;2023-03-01T17:01:23;7.90;82.80
14095;DHT22;18096;48.142;16.290;2023-03-01T17:03:52;8.00;82.80
14095;DHT22;18096;48.142;16.290;2023-03-01T17:06:20;7.90;82.70
14095;DHT22;18096;48.142;16.290;2023-03-01T17:08:47;7.90;82.90
14095;DHT22;18096;48.142;16.290;2023-03-01T17:11:15;7.90;82.90
14095;DHT22;18096;48.142;16.290;2023-03-01T17:13:42;7.90;83.00
14095;DHT22;18096;48.142;16.290;2023-03-01T17:16:10;7.90;82.90
14095;DHT22;18096;48.142;16.290;2023-03-01T17:25:08;7.90;83.10
14095;DHT22;18096;48.142;16.290;2023-03-01T17:27:38;7.80;83.60
14095;DHT22;18096;48.142;16.290;2023-03-01T17:30:07;7.80;83.00
14095;DHT22;18096;48.142;16.290;2023-03-01T17:32:33;7.90;83.10
14095;DHT22;18096;48.142;16.290;2023-03-01T17:34:59;7.80;82.90
14095;DHT22;18096;48.142;16.290;2023-03-01T17:37:25;7.80;83.00
14095;DHT22;18096;48.142;16.290;2023-03-01T17:39:51;7.70;83.10
14095;DHT22;18096;48.142;16.290;2023-03-01T17:42:17;7.70;83.10
14095;DHT22;18096;48.142;16.290;2023-03-01T17:44:43;7.70;83.30
14095;DHT22;18096;48.142;16.290;2023-03-01T17:47:09;7.70;83.30
14095;DHT22;18096;48.142;16.290;2023-03-01T17:49:35;7.80;83.10
14095;DHT22;18096;48.142;16.290;2023-03-01T17:52:00;7.70;83.10
14095;DHT22;18096;48.142;16.290;2023-03-01T17:54:26;7.70;83.20
14095;DHT22;18096;48.142;16.290;2023-03-01T17:56:52;7.70;83.20
14095;DHT22;18096;48.142;16.290;2023-03-01T17:59:20;7.70;83.10
14095;DHT22;18096;48.142;16.290;2023-03-01T18:01:46;7.60;83.00